createdAt,value
2018-12-31T00:00:12.454Z,8.91
2018-12-31T00:01:12.419Z,8.78
2018-12-31T00:02:12.405Z,8.88
2018-12-31T00:03:12.468Z,8.88
2018-12-31T00:04:12.388Z,8.88
2018-12-31T00:05:12.404Z,8.76
2018-12-31T00:06:12.358Z,8.89
2018-12-31T00:07:12.379Z,8.81
2018-12-31T00:08:12.341Z,8.95
2018-12-31T00:09:12.338Z,8.85
2018-12-31T00:10:12.343Z,8.85
2018-12-31T00:11:12.326Z,8.82
2018-12-31T00:12:12.455Z,8.94
2018-12-31T00:13:12.294Z,8.91
2018-12-31T00:14:12.266Z,8.85
2018-12-31T00:15:12.366Z,9.02
2018-12-31T00:16:12.259Z,8.82
2018-12-31T00:17:12.266Z,8.95
2018-12-31T00:18:12.247Z,8.82
2018-12-31T00:19:12.216Z,8.78
2018-12-31T00:20:12.211Z,8.81
2018-12-31T00:21:12.191Z,8.91
2018-12-31T00:22:12.181Z,8.89
2018-12-31T00:23:12.202Z,8.89
2018-12-31T00:24:12.165Z,8.85
2018-12-31T00:25:12.158Z,8.94
2018-12-31T00:26:12.144Z,8.85
2018-12-31T00:27:12.122Z,8.87
2018-12-31T00:28:12.120Z,8.87
2018-12-31T00:29:12.130Z,8.91
2018-12-31T00:30:12.129Z,8.84
2018-12-31T00:31:12.082Z,8.85
2018-12-31T00:32:12.079Z,8.85
2018-12-31T00:33:12.061Z,8.82
2018-12-31T00:34:12.077Z,8.85
2018-12-31T00:35:12.047Z,8.91
2018-12-31T00:36:12.206Z,8.85
2018-12-31T00:37:12.024Z,8.84
2018-12-31T00:38:12.008Z,8.85
2018-12-31T00:39:12.002Z,8.89
2018-12-31T00:40:11.987Z,8.78
2018-12-31T00:41:11.993Z,8.99
2018-12-31T00:42:11.963Z,8.81
2018-12-31T00:43:11.974Z,8.92
2018-12-31T00:44:11.941Z,8.91
2018-12-31T00:45:11.949Z,8.85
2018-12-31T00:46:11.932Z,8.85
2018-12-31T00:47:11.934Z,8.89
2018-12-31T00:48:11.922Z,8.84
2018-12-31T00:49:11.889Z,8.78
2018-12-31T00:50:11.882Z,8.92
2018-12-31T00:51:11.863Z,8.87
2018-12-31T00:52:11.890Z,8.79
2018-12-31T00:53:11.851Z,8.88
2018-12-31T00:54:11.845Z,8.82
2018-12-31T00:55:11.892Z,8.91
2018-12-31T00:56:11.845Z,8.85
2018-12-31T00:57:11.817Z,8.85
2018-12-31T00:58:11.793Z,8.92
2018-12-31T00:59:11.816Z,8.94
2018-12-31T01:00:11.773Z,8.85
2018-12-31T01:01:11.760Z,8.87
2018-12-31T01:02:11.749Z,8.94
2018-12-31T01:03:11.738Z,8.94
2018-12-31T01:04:11.730Z,8.94
2018-12-31T01:05:11.744Z,8.97
2018-12-31T01:06:11.698Z,8.95
2018-12-31T01:07:11.709Z,8.88
2018-12-31T01:08:11.679Z,8.92
2018-12-31T01:09:11.665Z,8.97
2018-12-31T01:10:11.699Z,8.89
2018-12-31T01:11:12.596Z,8.89
2018-12-31T01:12:11.636Z,8.97
2018-12-31T01:13:11.718Z,8.89
2018-12-31T01:14:11.617Z,8.94
2018-12-31T01:15:11.600Z,8.89
2018-12-31T01:16:11.635Z,8.95
2018-12-31T01:17:11.580Z,8.95
2018-12-31T01:18:11.576Z,9.02
2018-12-31T01:19:11.572Z,8.99
2018-12-31T01:20:11.550Z,9.00
2018-12-31T01:21:11.544Z,8.94
2018-12-31T01:22:11.542Z,9.11
2018-12-31T01:23:11.512Z,9.08
2018-12-31T01:24:11.514Z,9.04
2018-12-31T01:25:11.493Z,9.11
2018-12-31T01:26:11.535Z,9.19
2018-12-31T01:27:11.473Z,9.13
2018-12-31T01:28:11.462Z,9.13
2018-12-31T01:29:11.453Z,9.06
2018-12-31T01:30:11.437Z,9.18
2018-12-31T01:31:11.427Z,9.06
2018-12-31T01:32:11.586Z,9.13
2018-12-31T01:33:11.409Z,9.14
2018-12-31T01:34:11.389Z,9.13
2018-12-31T01:35:11.389Z,9.10
2018-12-31T01:36:11.374Z,9.23
2018-12-31T01:37:11.359Z,9.14
2018-12-31T01:38:11.372Z,9.11
2018-12-31T01:39:11.347Z,9.06
2018-12-31T01:40:11.328Z,9.18
2018-12-31T01:41:11.315Z,9.11
2018-12-31T01:42:11.305Z,9.18
2018-12-31T01:43:11.295Z,9.16
2018-12-31T01:44:11.305Z,9.16
2018-12-31T01:45:11.368Z,9.19
2018-12-31T01:46:11.266Z,9.13
2018-12-31T01:47:11.254Z,9.14
2018-12-31T01:48:11.342Z,9.14
2018-12-31T01:49:11.257Z,9.08
2018-12-31T01:50:11.221Z,9.23
2018-12-31T01:51:11.684Z,9.19
2018-12-31T01:52:11.205Z,9.10
2018-12-31T01:53:11.186Z,9.19
2018-12-31T01:54:11.182Z,9.08
2018-12-31T01:55:11.189Z,9.06
2018-12-31T01:56:11.150Z,9.08
2018-12-31T01:57:11.138Z,9.10
2018-12-31T01:58:11.150Z,9.11
2018-12-31T01:59:11.126Z,9.18
2018-12-31T02:00:11.119Z,9.03
2018-12-31T02:01:11.266Z,9.13
2018-12-31T02:02:11.141Z,9.04
2018-12-31T02:03:11.082Z,9.10
2018-12-31T02:04:11.141Z,9.10
2018-12-31T02:05:11.106Z,9.06
2018-12-31T02:06:11.075Z,9.06
2018-12-31T02:07:11.038Z,9.11
2018-12-31T02:08:11.026Z,9.03
2018-12-31T02:09:11.013Z,9.04
2018-12-31T02:10:11.002Z,9.06
2018-12-31T02:11:10.990Z,9.10
2018-12-31T02:12:11.007Z,9.00
2018-12-31T02:13:10.968Z,9.10
2018-12-31T02:14:11.010Z,9.03
2018-12-31T02:15:10.947Z,9.04
2018-12-31T02:16:10.961Z,9.08
2018-12-31T02:17:10.927Z,9.10
2018-12-31T02:18:10.911Z,9.13
2018-12-31T02:19:10.901Z,9.11
2018-12-31T02:20:10.892Z,9.03
2018-12-31T02:21:10.878Z,9.03
2018-12-31T02:22:10.892Z,9.19
2018-12-31T02:23:10.858Z,9.18
2018-12-31T02:24:10.861Z,9.18
2018-12-31T02:25:10.969Z,9.04
2018-12-31T02:26:10.822Z,9.02
2018-12-31T02:27:10.811Z,9.13
2018-12-31T02:28:10.875Z,9.21
2018-12-31T02:29:10.792Z,9.03
2018-12-31T02:30:10.787Z,9.08
2018-12-31T02:31:10.776Z,9.04
2018-12-31T02:32:10.794Z,9.08
2018-12-31T02:33:10.754Z,9.08
2018-12-31T02:34:10.789Z,9.06
2018-12-31T02:35:10.778Z,9.06
2018-12-31T02:36:10.720Z,9.08
2018-12-31T02:37:10.745Z,9.11
2018-12-31T02:38:10.722Z,9.10
2018-12-31T02:39:10.681Z,9.10
2018-12-31T02:40:10.673Z,9.10
2018-12-31T02:41:10.764Z,9.08
2018-12-31T02:42:10.646Z,9.08
2018-12-31T02:43:10.633Z,9.08
2018-12-31T02:44:10.684Z,9.10
2018-12-31T02:45:10.642Z,9.06
2018-12-31T02:46:10.631Z,9.11
2018-12-31T02:47:10.603Z,9.04
2018-12-31T02:48:10.601Z,9.19
2018-12-31T02:49:10.584Z,9.18
2018-12-31T02:50:10.617Z,9.16
2018-12-31T02:51:10.570Z,9.21
2018-12-31T02:52:10.539Z,9.18
2018-12-31T02:53:10.524Z,9.11
2018-12-31T02:54:10.526Z,9.11
2018-12-31T02:55:10.536Z,9.21
2018-12-31T02:56:10.521Z,9.18
2018-12-31T02:57:10.488Z,9.08
2018-12-31T02:58:10.469Z,9.19
2018-12-31T02:59:10.466Z,9.16
2018-12-31T03:00:10.540Z,9.13
2018-12-31T03:01:10.456Z,9.18
2018-12-31T03:02:10.429Z,9.10
2018-12-31T03:03:10.458Z,9.11
2018-12-31T03:04:10.411Z,9.14
2018-12-31T03:05:10.447Z,9.19
2018-12-31T03:06:10.393Z,9.06
2018-12-31T03:07:10.377Z,9.04
2018-12-31T03:08:10.550Z,9.14
2018-12-31T03:09:10.397Z,9.18
2018-12-31T03:10:10.346Z,9.14
2018-12-31T03:11:10.343Z,9.18
2018-12-31T03:12:10.317Z,9.18
2018-12-31T03:13:10.311Z,9.19
2018-12-31T03:14:10.305Z,9.06
2018-12-31T03:15:10.315Z,9.21
2018-12-31T03:16:10.280Z,9.18
2018-12-31T03:17:10.266Z,9.08
2018-12-31T03:18:10.258Z,9.19
2018-12-31T03:19:10.255Z,9.10
2018-12-31T03:20:10.255Z,9.13
2018-12-31T03:21:10.220Z,9.03
2018-12-31T03:22:10.236Z,9.13
2018-12-31T03:23:10.231Z,9.08
2018-12-31T03:24:10.207Z,9.21
2018-12-31T03:25:10.201Z,9.18
2018-12-31T03:26:10.172Z,9.18
2018-12-31T03:27:10.193Z,9.10
2018-12-31T03:28:10.144Z,9.18
2018-12-31T03:29:10.136Z,9.11
2018-12-31T03:30:10.147Z,9.13
2018-12-31T03:31:10.115Z,9.16
2018-12-31T03:32:10.110Z,9.21
2018-12-31T03:33:10.097Z,9.04
2018-12-31T03:34:10.076Z,9.08
2018-12-31T03:35:10.073Z,9.10
2018-12-31T03:36:10.080Z,9.19
2018-12-31T03:37:10.054Z,9.16
2018-12-31T03:38:10.045Z,9.13
2018-12-31T03:39:10.041Z,9.10
2018-12-31T03:40:10.624Z,9.18
2018-12-31T03:41:10.002Z,9.25
2018-12-31T03:42:10.002Z,9.25
2018-12-31T03:43:09.997Z,9.14
2018-12-31T03:44:09.992Z,9.21
2018-12-31T03:45:09.962Z,9.14
2018-12-31T03:46:09.951Z,9.22
2018-12-31T03:47:09.936Z,9.19
2018-12-31T03:48:09.956Z,9.21
2018-12-31T03:49:09.919Z,9.22
2018-12-31T03:50:09.930Z,9.21
2018-12-31T03:51:09.980Z,9.25
2018-12-31T03:52:09.885Z,9.19
2018-12-31T03:53:09.988Z,9.22
2018-12-31T03:54:09.869Z,9.23
2018-12-31T03:55:09.846Z,9.23
2018-12-31T03:56:09.841Z,9.25
2018-12-31T03:57:09.853Z,9.25
2018-12-31T03:58:09.820Z,9.25
2018-12-31T03:59:09.811Z,9.21
2018-12-31T04:00:09.799Z,9.28
2018-12-31T04:01:09.782Z,9.26
2018-12-31T04:02:09.805Z,9.21
2018-12-31T04:03:09.759Z,9.13
2018-12-31T04:04:09.854Z,9.26
2018-12-31T04:05:09.740Z,9.23
2018-12-31T04:06:09.735Z,9.26
2018-12-31T04:07:09.762Z,9.16
2018-12-31T04:08:09.722Z,9.23
2018-12-31T04:09:09.717Z,9.25
2018-12-31T04:10:09.687Z,9.22
2018-12-31T04:11:09.677Z,9.25
2018-12-31T04:12:09.666Z,9.22
2018-12-31T04:13:09.655Z,9.22
2018-12-31T04:14:09.675Z,9.28
2018-12-31T04:15:09.630Z,9.28
2018-12-31T04:16:09.618Z,9.26
2018-12-31T04:17:09.608Z,9.23
2018-12-31T04:18:09.596Z,9.25
2018-12-31T04:19:09.619Z,9.34
2018-12-31T04:20:09.583Z,9.26
2018-12-31T04:21:09.567Z,9.34
2018-12-31T04:22:09.556Z,9.32
2018-12-31T04:23:09.638Z,9.36
2018-12-31T04:24:09.530Z,9.25
2018-12-31T04:25:09.518Z,9.32
2018-12-31T04:26:09.514Z,9.28
2018-12-31T04:27:09.499Z,9.32
2018-12-31T04:28:09.488Z,9.28
2018-12-31T04:29:09.503Z,9.32
2018-12-31T04:30:09.464Z,9.37
2018-12-31T04:31:09.453Z,9.23
2018-12-31T04:32:09.443Z,9.34
2018-12-31T04:33:09.437Z,9.34
2018-12-31T04:34:09.445Z,9.32
2018-12-31T04:35:09.413Z,9.26
2018-12-31T04:36:09.399Z,9.36
2018-12-31T04:37:09.414Z,9.32
2018-12-31T04:38:09.406Z,9.32
2018-12-31T04:39:09.370Z,9.39
2018-12-31T04:40:09.352Z,9.31
2018-12-31T04:41:09.355Z,9.34
2018-12-31T04:42:09.331Z,9.39
2018-12-31T04:43:09.323Z,9.39
2018-12-31T04:44:09.443Z,9.34
2018-12-31T04:45:09.332Z,9.34
2018-12-31T04:46:09.291Z,9.40
2018-12-31T04:47:10.136Z,9.32
2018-12-31T04:48:09.268Z,9.34
2018-12-31T04:49:09.258Z,9.34
2018-12-31T04:50:09.272Z,9.26
2018-12-31T04:51:09.257Z,9.31
2018-12-31T04:52:09.233Z,9.31
2018-12-31T04:53:09.214Z,9.29
2018-12-31T04:54:09.211Z,9.31
2018-12-31T04:55:09.223Z,9.39
2018-12-31T04:56:09.177Z,9.34
2018-12-31T04:57:09.189Z,9.39
2018-12-31T04:58:09.157Z,9.39
2018-12-31T04:59:09.148Z,9.34
2018-12-31T05:00:10.141Z,9.36
2018-12-31T05:01:09.155Z,9.37
2018-12-31T05:02:09.116Z,9.43
2018-12-31T05:03:09.178Z,9.39
2018-12-31T05:04:09.093Z,9.46
2018-12-31T05:05:09.152Z,9.44
2018-12-31T05:06:09.095Z,9.43
2018-12-31T05:07:09.063Z,9.37
2018-12-31T05:08:09.049Z,9.39
2018-12-31T05:09:09.041Z,9.39
2018-12-31T05:10:09.026Z,9.37
2018-12-31T05:11:09.055Z,9.46
2018-12-31T05:12:09.005Z,9.39
2018-12-31T05:13:08.997Z,9.44
2018-12-31T05:14:08.985Z,9.40
2018-12-31T05:15:08.991Z,9.46
2018-12-31T05:16:09.064Z,9.48
2018-12-31T05:17:08.976Z,9.43
2018-12-31T05:18:08.944Z,9.46
2018-12-31T05:19:08.996Z,9.46
2018-12-31T05:20:08.916Z,9.40
2018-12-31T05:21:08.907Z,9.40
2018-12-31T05:22:08.910Z,9.46
2018-12-31T05:23:08.913Z,9.46
2018-12-31T05:24:08.877Z,9.43
2018-12-31T05:25:08.869Z,9.46
2018-12-31T05:26:08.852Z,9.44
2018-12-31T05:27:08.860Z,9.46
2018-12-31T05:28:08.866Z,9.48
2018-12-31T05:29:08.825Z,9.46
2018-12-31T05:30:08.816Z,9.40
2018-12-31T05:31:08.804Z,9.40
2018-12-31T05:32:08.806Z,9.43
2018-12-31T05:33:08.815Z,9.36
2018-12-31T05:34:08.765Z,9.46
2018-12-31T05:35:08.753Z,9.46
2018-12-31T05:36:08.751Z,9.41
2018-12-31T05:37:08.729Z,9.40
2018-12-31T05:38:08.727Z,9.50
2018-12-31T05:39:08.735Z,9.47
2018-12-31T05:40:08.838Z,9.47
2018-12-31T05:41:08.693Z,9.40
2018-12-31T05:42:08.676Z,9.36
2018-12-31T05:43:08.720Z,9.43
2018-12-31T05:44:08.682Z,9.41
2018-12-31T05:45:08.650Z,9.41
2018-12-31T05:46:08.640Z,9.41
2018-12-31T05:47:08.622Z,9.44
2018-12-31T05:48:08.605Z,9.39
2018-12-31T05:49:08.669Z,9.44
2018-12-31T05:50:08.619Z,9.46
2018-12-31T05:51:08.612Z,9.43
2018-12-31T05:52:08.564Z,9.41
2018-12-31T05:53:08.553Z,9.43
2018-12-31T05:54:08.542Z,9.37
2018-12-31T05:55:08.528Z,9.39
2018-12-31T05:56:08.625Z,9.46
2018-12-31T05:57:08.509Z,9.41
2018-12-31T05:58:08.499Z,9.37
2018-12-31T05:59:08.530Z,9.37
2018-12-31T06:00:08.476Z,9.39
2018-12-31T06:01:08.464Z,9.43
2018-12-31T06:02:08.479Z,9.40
2018-12-31T06:03:08.438Z,9.43
2018-12-31T06:04:08.445Z,9.41
2018-12-31T06:05:08.418Z,9.37
2018-12-31T06:06:08.406Z,9.36
2018-12-31T06:07:08.400Z,9.41
2018-12-31T06:08:08.410Z,9.40
2018-12-31T06:09:08.372Z,9.40
2018-12-31T06:10:08.363Z,9.41
2018-12-31T06:11:08.364Z,9.41
2018-12-31T06:12:08.339Z,9.40
2018-12-31T06:13:08.359Z,9.46
2018-12-31T06:14:08.319Z,9.37
2018-12-31T06:15:08.324Z,9.44
2018-12-31T06:16:08.301Z,9.48
2018-12-31T06:17:08.282Z,9.40
2018-12-31T06:18:08.282Z,9.41
2018-12-31T06:19:08.306Z,9.41
2018-12-31T06:20:08.298Z,9.44
2018-12-31T06:21:08.250Z,9.39
2018-12-31T06:22:08.231Z,9.32
2018-12-31T06:23:08.221Z,9.40
2018-12-31T06:24:08.222Z,9.37
2018-12-31T06:25:08.219Z,9.47
2018-12-31T06:26:08.192Z,9.39
2018-12-31T06:27:08.172Z,9.40
2018-12-31T06:28:08.166Z,9.41
2018-12-31T06:29:08.182Z,9.37
2018-12-31T06:30:08.180Z,9.43
2018-12-31T06:31:08.162Z,9.39
2018-12-31T06:32:08.146Z,9.37
2018-12-31T06:33:08.107Z,9.41
2018-12-31T06:34:08.101Z,9.34
2018-12-31T06:35:08.093Z,9.41
2018-12-31T06:36:08.203Z,9.37
2018-12-31T06:37:08.096Z,9.41
2018-12-31T06:38:08.058Z,9.40
2018-12-31T06:39:08.096Z,9.41
2018-12-31T06:40:08.027Z,9.39
2018-12-31T06:41:08.020Z,9.43
2018-12-31T06:42:08.037Z,9.43
2018-12-31T06:43:08.005Z,9.43
2018-12-31T06:44:07.988Z,9.39
2018-12-31T06:45:07.973Z,9.40
2018-12-31T06:46:07.975Z,9.46
2018-12-31T06:47:07.963Z,9.48
2018-12-31T06:48:07.974Z,9.44
2018-12-31T06:49:07.942Z,9.41
2018-12-31T06:50:07.917Z,9.46
2018-12-31T06:51:07.913Z,9.40
2018-12-31T06:52:08.119Z,9.36
2018-12-31T06:53:07.893Z,9.32
2018-12-31T06:54:07.902Z,9.34
2018-12-31T06:55:07.961Z,9.32
2018-12-31T06:56:07.852Z,9.31
2018-12-31T06:57:07.842Z,9.31
2018-12-31T06:58:07.830Z,9.37
2018-12-31T06:59:07.842Z,9.37
2018-12-31T07:00:07.821Z,9.39
2018-12-31T07:01:07.795Z,9.34
2018-12-31T07:02:07.815Z,9.41
2018-12-31T07:03:07.772Z,9.36
2018-12-31T07:04:07.761Z,9.44
2018-12-31T07:05:07.752Z,9.43
2018-12-31T07:06:07.741Z,9.43
2018-12-31T07:07:07.750Z,9.43
2018-12-31T07:08:07.720Z,9.43
2018-12-31T07:09:07.763Z,9.46
2018-12-31T07:10:07.698Z,9.37
2018-12-31T07:11:07.689Z,9.48
2018-12-31T07:12:07.675Z,9.40
2018-12-31T07:13:07.675Z,9.40
2018-12-31T07:14:07.659Z,9.46
2018-12-31T07:15:07.669Z,9.46
2018-12-31T07:16:07.800Z,9.44
2018-12-31T07:17:07.641Z,9.43
2018-12-31T07:18:07.622Z,9.46
2018-12-31T07:19:07.653Z,9.40
2018-12-31T07:20:07.591Z,9.46
2018-12-31T07:21:07.604Z,9.44
2018-12-31T07:22:07.591Z,9.41
2018-12-31T07:23:07.556Z,9.44
2018-12-31T07:24:07.576Z,9.40
2018-12-31T07:25:07.544Z,9.44
2018-12-31T07:26:07.549Z,9.40
2018-12-31T07:27:07.508Z,9.46
2018-12-31T07:28:07.502Z,9.41
2018-12-31T07:29:07.510Z,9.43
2018-12-31T07:30:07.478Z,9.44
2018-12-31T07:31:07.463Z,9.39
2018-12-31T07:32:07.625Z,9.43
2018-12-31T07:33:07.446Z,9.39
2018-12-31T07:34:07.451Z,9.39
2018-12-31T07:35:07.442Z,9.44
2018-12-31T07:36:07.437Z,9.37
2018-12-31T07:37:07.401Z,9.40
2018-12-31T07:38:07.392Z,9.39
2018-12-31T07:39:07.387Z,9.41
2018-12-31T07:40:07.365Z,9.40
2018-12-31T07:41:07.356Z,9.46
2018-12-31T07:42:07.364Z,9.43
2018-12-31T07:43:07.333Z,9.39
2018-12-31T07:44:07.321Z,9.37
2018-12-31T07:45:07.314Z,9.41
2018-12-31T07:46:07.302Z,9.43
2018-12-31T07:47:07.288Z,9.43
2018-12-31T07:48:07.343Z,9.43
2018-12-31T07:49:07.294Z,9.41
2018-12-31T07:50:07.254Z,9.39
2018-12-31T07:51:07.319Z,9.44
2018-12-31T07:52:07.255Z,9.39
2018-12-31T07:53:07.258Z,9.39
2018-12-31T07:54:07.212Z,9.46
2018-12-31T07:55:07.222Z,9.39
2018-12-31T07:56:07.203Z,9.47
2018-12-31T07:57:07.183Z,9.44
2018-12-31T07:58:07.174Z,9.36
2018-12-31T07:59:07.217Z,9.41
2018-12-31T08:00:07.145Z,9.37
2018-12-31T08:01:07.134Z,9.43
2018-12-31T08:02:07.134Z,9.39
2018-12-31T08:03:07.115Z,9.39
2018-12-31T08:04:07.123Z,9.40
2018-12-31T08:05:07.096Z,9.41
2018-12-31T08:06:07.080Z,9.43
2018-12-31T08:07:07.100Z,9.41
2018-12-31T08:08:07.061Z,9.46
2018-12-31T08:09:07.055Z,9.43
2018-12-31T08:10:07.060Z,9.37
2018-12-31T08:11:07.028Z,9.39
2018-12-31T08:12:07.020Z,9.40
2018-12-31T08:13:07.001Z,9.36
2018-12-31T08:14:07.022Z,9.40
2018-12-31T08:15:07.106Z,9.39
2018-12-31T08:16:07.000Z,9.37
2018-12-31T08:17:06.965Z,9.43
2018-12-31T08:18:06.966Z,9.37
2018-12-31T08:19:06.938Z,9.39
2018-12-31T08:20:06.975Z,9.40
2018-12-31T08:21:06.922Z,9.43
2018-12-31T08:22:06.945Z,9.43
2018-12-31T08:23:06.895Z,9.39
2018-12-31T08:24:06.887Z,9.40
2018-12-31T08:25:06.870Z,9.43
2018-12-31T08:26:06.864Z,9.36
2018-12-31T08:27:06.850Z,9.37
2018-12-31T08:28:06.869Z,9.43
2018-12-31T08:29:06.829Z,9.39
2018-12-31T08:30:06.820Z,9.37
2018-12-31T08:31:06.955Z,9.44
2018-12-31T08:32:06.799Z,9.41
2018-12-31T08:33:06.807Z,9.43
2018-12-31T08:34:06.811Z,9.40
2018-12-31T08:35:06.766Z,9.43
2018-12-31T08:36:06.758Z,9.41
2018-12-31T08:37:06.745Z,9.41
2018-12-31T08:38:06.772Z,9.50
2018-12-31T08:39:06.721Z,9.40
2018-12-31T08:40:06.717Z,9.48
2018-12-31T08:41:06.716Z,9.44
2018-12-31T08:42:06.688Z,9.48
2018-12-31T08:43:06.708Z,9.46
2018-12-31T08:44:06.688Z,9.40
2018-12-31T08:45:06.659Z,9.41
2018-12-31T08:46:06.656Z,9.47
2018-12-31T08:47:06.642Z,9.50
2018-12-31T08:48:06.631Z,9.50
2018-12-31T08:49:06.657Z,9.44
2018-12-31T08:50:06.597Z,9.37
2018-12-31T08:51:06.589Z,9.44
2018-12-31T08:52:06.577Z,9.44
2018-12-31T08:53:06.567Z,9.43
2018-12-31T08:54:06.637Z,9.48
2018-12-31T08:55:06.659Z,9.46
2018-12-31T08:56:06.538Z,9.44
2018-12-31T08:57:06.523Z,9.44
2018-12-31T08:58:06.544Z,9.46
2018-12-31T08:59:06.512Z,9.48
2018-12-31T09:00:06.516Z,9.44
2018-12-31T09:01:06.481Z,9.43
2018-12-31T09:02:06.563Z,9.54
2018-12-31T09:03:06.470Z,9.46
2018-12-31T09:04:06.453Z,9.55
2018-12-31T09:05:06.455Z,9.44
2018-12-31T09:06:06.478Z,9.47
2018-12-31T09:07:06.415Z,9.56
2018-12-31T09:08:06.417Z,9.55
2018-12-31T09:09:06.392Z,9.41
2018-12-31T09:10:06.385Z,9.46
2018-12-31T09:11:06.390Z,9.50
2018-12-31T09:12:06.387Z,9.58
2018-12-31T09:13:06.353Z,9.48
2018-12-31T09:14:06.379Z,9.51
2018-12-31T09:15:06.326Z,9.51
2018-12-31T09:16:06.327Z,9.48
2018-12-31T09:17:06.386Z,9.58
2018-12-31T09:18:06.298Z,9.44
2018-12-31T09:19:06.293Z,9.48
2018-12-31T09:20:06.293Z,9.51
2018-12-31T09:21:06.266Z,9.50
2018-12-31T09:22:06.254Z,9.47
2018-12-31T09:23:06.765Z,9.47
2018-12-31T09:24:06.239Z,9.44
2018-12-31T09:25:06.228Z,9.46
2018-12-31T09:26:06.236Z,9.39
2018-12-31T09:27:06.245Z,9.46
2018-12-31T09:28:06.183Z,9.54
2018-12-31T09:29:06.221Z,9.41
2018-12-31T09:30:06.171Z,9.48
2018-12-31T09:31:07.801Z,9.44
2018-12-31T09:32:06.142Z,9.50
2018-12-31T09:33:06.129Z,9.40
2018-12-31T09:34:06.143Z,9.54
2018-12-31T09:35:06.210Z,9.43
2018-12-31T09:36:06.105Z,9.46
2018-12-31T09:37:06.105Z,9.39
2018-12-31T09:38:06.094Z,9.44
2018-12-31T09:39:06.062Z,9.46
2018-12-31T09:40:06.084Z,9.54
2018-12-31T09:41:06.038Z,9.54
2018-12-31T09:42:06.043Z,9.43
2018-12-31T09:43:06.022Z,9.51
2018-12-31T09:44:06.005Z,9.48
2018-12-31T09:45:06.012Z,9.44
2018-12-31T09:46:06.016Z,9.54
2018-12-31T09:47:05.986Z,9.50
2018-12-31T09:48:05.995Z,9.54
2018-12-31T09:49:05.960Z,9.51
2018-12-31T09:50:05.956Z,9.50
2018-12-31T09:51:06.054Z,9.51
2018-12-31T09:52:05.915Z,9.59
2018-12-31T09:53:05.911Z,9.58
2018-12-31T09:54:05.971Z,9.54
2018-12-31T09:55:05.885Z,9.58
2018-12-31T09:56:05.877Z,9.55
2018-12-31T09:57:05.875Z,9.65
2018-12-31T09:58:05.904Z,9.58
2018-12-31T09:59:05.851Z,9.54
2018-12-31T10:00:05.837Z,9.61
2018-12-31T10:01:05.822Z,9.55
2018-12-31T10:02:05.811Z,9.61
2018-12-31T10:03:05.800Z,9.59
2018-12-31T10:04:05.827Z,9.54
2018-12-31T10:05:05.803Z,9.54
2018-12-31T10:06:05.770Z,9.58
2018-12-31T10:07:05.760Z,9.51
2018-12-31T10:08:05.768Z,9.50
2018-12-31T10:09:05.749Z,9.55
2018-12-31T10:10:05.756Z,9.55
2018-12-31T10:11:05.708Z,9.48
2018-12-31T10:12:05.698Z,9.54
2018-12-31T10:13:05.689Z,9.55
2018-12-31T10:14:05.678Z,9.58
2018-12-31T10:15:05.687Z,9.55
2018-12-31T10:16:05.695Z,9.51
2018-12-31T10:17:05.657Z,9.51
2018-12-31T10:18:05.637Z,9.51
2018-12-31T10:19:05.628Z,9.54
2018-12-31T10:20:05.610Z,9.54
2018-12-31T10:21:05.651Z,9.48
2018-12-31T10:22:05.597Z,9.59
2018-12-31T10:23:05.575Z,9.56
2018-12-31T10:24:05.595Z,9.64
2018-12-31T10:25:05.564Z,9.58
2018-12-31T10:26:05.545Z,9.62
2018-12-31T10:27:05.575Z,9.61
2018-12-31T10:28:05.526Z,9.61
2018-12-31T10:29:05.517Z,9.59
2018-12-31T10:30:05.502Z,9.61
2018-12-31T10:31:05.682Z,9.66
2018-12-31T10:32:05.519Z,9.65
2018-12-31T10:33:05.478Z,9.64
2018-12-31T10:34:05.488Z,9.64
2018-12-31T10:35:05.492Z,9.62
2018-12-31T10:36:05.444Z,9.62
2018-12-31T10:37:05.429Z,9.64
2018-12-31T10:38:05.454Z,9.64
2018-12-31T10:39:05.415Z,9.66
2018-12-31T10:40:05.394Z,9.61
2018-12-31T10:41:05.386Z,9.65
2018-12-31T10:42:05.366Z,9.58
2018-12-31T10:43:05.384Z,9.59
2018-12-31T10:44:05.358Z,9.48
2018-12-31T10:45:05.365Z,9.55
2018-12-31T10:46:05.323Z,9.51
2018-12-31T10:47:05.345Z,9.54
2018-12-31T10:48:05.303Z,9.62
2018-12-31T10:49:05.296Z,9.64
2018-12-31T10:50:05.286Z,9.59
2018-12-31T10:51:05.306Z,9.58
2018-12-31T10:52:05.257Z,9.61
2018-12-31T10:53:05.370Z,9.68
2018-12-31T10:54:05.278Z,9.61
2018-12-31T10:55:05.229Z,9.61
2018-12-31T10:56:05.223Z,9.64
2018-12-31T10:57:05.215Z,9.64
2018-12-31T10:58:05.202Z,9.65
2018-12-31T10:59:05.189Z,9.64
2018-12-31T11:00:05.190Z,9.61
2018-12-31T11:01:05.167Z,9.66
2018-12-31T11:02:05.145Z,9.62
2018-12-31T11:03:05.140Z,9.65
2018-12-31T11:04:05.131Z,9.62
2018-12-31T11:05:05.150Z,9.64
2018-12-31T11:06:05.105Z,9.76
2018-12-31T11:07:05.100Z,9.62
2018-12-31T11:08:05.098Z,9.73
2018-12-31T11:09:05.069Z,9.74
2018-12-31T11:10:05.072Z,9.64
2018-12-31T11:11:05.091Z,9.69
2018-12-31T11:12:05.039Z,9.72
2018-12-31T11:13:05.025Z,9.73
2018-12-31T11:14:05.036Z,9.74
2018-12-31T11:15:05.007Z,9.73
2018-12-31T11:16:04.996Z,9.73
2018-12-31T11:17:05.067Z,9.69
2018-12-31T11:18:04.971Z,9.69
2018-12-31T11:19:04.989Z,9.68
2018-12-31T11:20:04.969Z,9.66
2018-12-31T11:21:04.941Z,9.66
2018-12-31T11:22:04.949Z,9.76
2018-12-31T11:23:04.917Z,9.74
2018-12-31T11:24:04.913Z,9.69
2018-12-31T11:25:04.947Z,9.66
2018-12-31T11:26:04.898Z,9.72
2018-12-31T11:27:04.883Z,9.73
2018-12-31T11:28:04.860Z,9.62
2018-12-31T11:29:04.879Z,9.76
2018-12-31T11:30:04.834Z,9.66
2018-12-31T11:31:04.851Z,9.65
2018-12-31T11:32:04.815Z,9.73
2018-12-31T11:33:04.916Z,9.72
2018-12-31T11:34:04.801Z,9.69
2018-12-31T11:35:04.787Z,9.68
2018-12-31T11:36:04.827Z,9.69
2018-12-31T11:37:04.766Z,9.73
2018-12-31T11:38:04.768Z,9.77
2018-12-31T11:39:04.734Z,9.72
2018-12-31T11:40:04.729Z,9.69
2018-12-31T11:41:04.729Z,9.73
2018-12-31T11:42:04.730Z,9.74
2018-12-31T11:43:04.698Z,9.79
2018-12-31T11:44:04.723Z,9.76
2018-12-31T11:45:04.669Z,9.79
2018-12-31T11:46:04.668Z,9.77
2018-12-31T11:47:04.654Z,9.80
2018-12-31T11:48:04.665Z,9.79
2018-12-31T11:49:04.640Z,9.82
2018-12-31T11:50:04.618Z,9.84
2018-12-31T11:51:04.610Z,9.84
2018-12-31T11:52:04.616Z,9.87
2018-12-31T11:53:04.585Z,9.82
2018-12-31T11:54:05.227Z,9.83
2018-12-31T11:55:04.566Z,9.84
2018-12-31T11:56:04.578Z,9.84
2018-12-31T11:57:04.638Z,9.87
2018-12-31T11:58:04.545Z,9.82
2018-12-31T11:59:04.519Z,9.79
2018-12-31T12:00:04.504Z,9.73
2018-12-31T12:01:04.506Z,9.82
2018-12-31T12:02:04.489Z,9.84
2018-12-31T12:03:04.507Z,9.80
2018-12-31T12:04:04.480Z,9.86
2018-12-31T12:05:04.471Z,9.84
2018-12-31T12:06:04.430Z,9.86
2018-12-31T12:07:04.431Z,9.82
2018-12-31T12:08:04.420Z,9.83
2018-12-31T12:09:04.410Z,9.87
2018-12-31T12:10:04.496Z,9.77
2018-12-31T12:11:04.380Z,9.95
2018-12-31T12:12:04.395Z,9.98
2018-12-31T12:13:04.374Z,9.92
2018-12-31T12:14:04.346Z,9.92
2018-12-31T12:15:04.379Z,9.95
2018-12-31T12:16:04.324Z,9.84
2018-12-31T12:17:04.325Z,9.97
2018-12-31T12:18:04.303Z,9.98
2018-12-31T12:19:04.312Z,9.95
2018-12-31T12:20:04.289Z,9.97
2018-12-31T12:21:04.313Z,9.98
2018-12-31T12:22:04.255Z,9.99
2018-12-31T12:23:04.255Z,9.99
2018-12-31T12:24:04.237Z,9.98
2018-12-31T12:25:04.223Z,9.99
2018-12-31T12:26:04.262Z,10.04
2018-12-31T12:27:04.222Z,10.02
2018-12-31T12:28:05.267Z,10.01
2018-12-31T12:29:04.295Z,9.98
2018-12-31T12:30:04.179Z,9.92
2018-12-31T12:31:04.168Z,9.99
2018-12-31T12:32:04.228Z,9.98
2018-12-31T12:33:04.140Z,9.99
2018-12-31T12:34:04.121Z,9.99
2018-12-31T12:35:04.135Z,9.97
2018-12-31T12:36:04.105Z,9.91
2018-12-31T12:37:04.116Z,9.97
2018-12-31T12:38:04.108Z,9.94
2018-12-31T12:39:04.072Z,9.94
2018-12-31T12:40:04.107Z,9.89
2018-12-31T12:41:04.041Z,9.97
2018-12-31T12:42:04.068Z,9.89
2018-12-31T12:43:04.023Z,9.86
2018-12-31T12:44:04.044Z,9.87
2018-12-31T12:45:03.993Z,9.86
2018-12-31T12:46:04.009Z,9.82
2018-12-31T12:47:04.012Z,9.82
2018-12-31T12:48:03.970Z,9.86
2018-12-31T12:49:03.998Z,9.89
2018-12-31T12:50:03.943Z,9.92
2018-12-31T12:51:03.930Z,9.92
2018-12-31T12:52:03.925Z,9.92
2018-12-31T12:53:04.731Z,9.92
2018-12-31T12:54:03.950Z,9.91
2018-12-31T12:55:03.889Z,9.94
2018-12-31T12:56:03.928Z,9.89
2018-12-31T12:57:03.870Z,9.92
2018-12-31T12:58:03.859Z,9.94
2018-12-31T12:59:03.855Z,9.91
2018-12-31T13:00:03.862Z,9.89
2018-12-31T13:01:03.820Z,9.91
2018-12-31T13:02:03.852Z,9.89
2018-12-31T13:03:03.808Z,9.94
2018-12-31T13:04:03.789Z,9.91
2018-12-31T13:05:04.258Z,9.80
2018-12-31T13:06:03.765Z,9.94
2018-12-31T13:07:03.771Z,9.94
2018-12-31T13:08:03.769Z,9.92
2018-12-31T13:09:03.794Z,9.92
2018-12-31T13:10:03.718Z,9.95
2018-12-31T13:11:03.733Z,9.99
2018-12-31T13:12:03.748Z,9.92
2018-12-31T13:13:03.698Z,9.98
2018-12-31T13:14:03.684Z,9.99
2018-12-31T13:15:03.673Z,10.01
2018-12-31T13:16:03.684Z,9.99
2018-12-31T13:17:03.659Z,10.01
2018-12-31T13:18:03.686Z,9.99